createdAt,value
2022-12-03T13:06:25.694Z,3.67
2022-12-03T13:08:53.560Z,3.95
2022-12-03T13:11:41.598Z,4.07
2022-12-03T13:14:24.926Z,4.03
2022-12-03T13:16:54.832Z,8.43
2022-12-03T13:19:46.053Z,8.45
2022-12-03T13:22:23.033Z,6.75
2022-12-03T13:27:20.455Z,7.60
2022-12-03T13:30:01.119Z,9.70
2022-12-03T13:32:37.077Z,8.00
2022-12-03T13:35:30.697Z,8.02
2022-12-03T13:38:00.556Z,13.25
2022-12-03T13:40:35.063Z,11.77
2022-12-03T13:43:12.432Z,15.55
2022-12-03T13:45:41.503Z,14.25
2022-12-03T13:48:31.545Z,13.25
2022-12-03T13:51:26.548Z,11.45
2022-12-03T13:53:54.366Z,8.52
2022-12-03T13:56:32.923Z,6.90
2022-12-03T13:59:01.361Z,6.25
2022-12-03T14:01:29.845Z,4.82
2022-12-03T14:03:57.017Z,5.63
2022-12-03T14:06:24.087Z,9.35
2022-12-03T14:08:51.597Z,18.90
2022-12-03T14:11:37.373Z,12.43
2022-12-03T14:14:04.526Z,11.13
2022-12-03T14:16:31.719Z,9.13
2022-12-03T14:18:58.773Z,9.23
2022-12-03T14:21:25.717Z,9.52
2022-12-03T14:23:52.769Z,10.10
2022-12-03T14:26:19.713Z,11.50
2022-12-03T14:28:46.806Z,12.35
2022-12-03T14:31:13.888Z,16.02
2022-12-03T14:33:41.104Z,27.67
2022-12-03T14:36:08.459Z,19.92
2022-12-03T14:38:35.402Z,31.33
2022-12-03T14:41:04.497Z,20.50
2022-12-03T14:43:31.441Z,13.10
2022-12-03T14:45:58.636Z,13.57
2022-12-03T14:48:25.691Z,16.92
2022-12-03T14:50:52.788Z,19.30
2022-12-03T14:53:25.591Z,18.90
2022-12-03T14:55:55.846Z,17.40
2022-12-03T14:58:22.782Z,13.82
2022-12-03T15:00:49.957Z,14.10
2022-12-03T15:03:17.134Z,13.35
2022-12-03T15:05:44.229Z,13.05
2022-12-03T15:08:11.261Z,13.95
2022-12-03T15:10:38.375Z,7.53
2022-12-03T15:13:05.318Z,5.60
2022-12-03T15:15:32.416Z,5.10
2022-12-03T15:17:59.567Z,4.78
2022-12-03T15:20:26.510Z,5.10
2022-12-03T15:22:53.503Z,5.32
2022-12-03T15:25:24.700Z,5.93
2022-12-03T15:27:51.986Z,5.63
2022-12-03T15:30:20.801Z,5.03
2022-12-03T15:32:47.737Z,4.82
2022-12-03T15:35:17.902Z,3.92
2022-12-03T15:37:45.512Z,3.83
2022-12-03T15:40:13.532Z,3.78
2022-12-03T15:42:40.526Z,3.33
2022-12-03T15:45:13.442Z,4.18
2022-12-03T15:47:41.992Z,4.38
2022-12-03T15:50:09.296Z,3.80
2022-12-03T15:52:36.394Z,3.47
2022-12-03T15:55:04.156Z,3.92
2022-12-03T15:57:31.408Z,3.65
2022-12-03T15:59:58.405Z,4.00
2022-12-03T16:02:25.527Z,3.67
2022-12-03T16:04:52.496Z,3.60
2022-12-03T16:07:19.647Z,3.38
2022-12-03T16:09:46.641Z,3.95
2022-12-03T16:12:14.201Z,3.03
2022-12-03T16:14:41.198Z,2.58
2022-12-03T16:17:08.205Z,3.63
2022-12-03T16:19:36.569Z,4.00
2022-12-03T16:22:03.670Z,8.27
2022-12-03T16:24:30.723Z,5.95
2022-12-03T16:26:57.964Z,4.68
2022-12-03T16:29:25.062Z,5.28
2022-12-03T16:31:52.159Z,6.15
2022-12-03T16:34:19.210Z,6.07
2022-12-03T16:36:46.201Z,6.13
2022-12-03T16:39:13.559Z,5.25
2022-12-03T16:41:40.551Z,5.47
2022-12-03T16:44:07.750Z,7.50
2022-12-03T16:46:34.915Z,8.32
2022-12-03T16:49:01.845Z,9.43
2022-12-03T16:51:30.417Z,13.10
2022-12-03T16:53:57.422Z,10.93
2022-12-03T16:56:24.473Z,18.92
2022-12-03T16:58:51.516Z,27.20
2022-12-03T17:01:18.762Z,17.00
2022-12-03T17:03:45.865Z,11.30
2022-12-03T17:06:12.810Z,11.23
2022-12-03T17:08:44.374Z,13.13
2022-12-03T17:11:14.531Z,11.70
2022-12-03T17:13:41.628Z,9.95
2022-12-03T17:16:08.864Z,10.75
2022-12-03T17:18:35.823Z,11.55
2022-12-03T17:21:03.231Z,12.65
2022-12-03T17:23:30.199Z,16.60
2022-12-03T17:25:57.168Z,13.65
2022-12-03T17:28:24.112Z,11.35
2022-12-03T17:30:51.174Z,11.90
2022-12-03T17:33:18.359Z,12.02
2022-12-03T17:35:46.685Z,12.55
2022-12-03T17:38:13.630Z,15.27
2022-12-03T17:40:40.675Z,13.98
2022-12-03T17:43:07.671Z,14.25
2022-12-03T17:45:35.895Z,14.98
2022-12-03T17:48:04.124Z,13.75
2022-12-03T17:50:31.063Z,16.88
2022-12-03T17:52:58.676Z,19.08
2022-12-03T17:55:34.595Z,17.95
2022-12-03T17:58:06.421Z,18.20
2022-12-03T18:00:34.098Z,14.45
2022-12-03T18:03:01.094Z,14.15
2022-12-03T18:05:28.089Z,10.82
2022-12-03T18:07:55.272Z,8.88
2022-12-03T18:10:22.898Z,10.10
2022-12-03T18:12:49.898Z,9.05
2022-12-03T18:15:17.094Z,10.07
2022-12-03T18:17:44.142Z,9.35
2022-12-03T18:20:11.341Z,8.40
2022-12-03T18:22:38.747Z,7.53
2022-12-03T18:25:07.127Z,8.55
2022-12-03T18:27:34.430Z,9.88
2022-12-03T18:30:02.871Z,8.13
2022-12-03T18:32:30.274Z,6.60
2022-12-03T18:34:57.910Z,7.07
2022-12-03T18:37:29.894Z,8.48
2022-12-03T18:39:58.325Z,8.50
2022-12-03T18:42:25.977Z,6.80
2022-12-03T18:44:55.118Z,6.70
2022-12-03T18:47:25.022Z,6.75
2022-12-03T18:49:52.478Z,7.18
2022-12-03T18:52:22.300Z,6.68
2022-12-03T18:54:49.655Z,10.18
2022-12-03T18:57:17.058Z,13.68
2022-12-03T18:59:44.120Z,13.50
2022-12-03T19:02:38.544Z,17.50
2022-12-03T19:05:05.696Z,22.75
2022-12-03T19:07:32.786Z,19.42
2022-12-03T19:09:59.822Z,14.00
2022-12-03T19:12:26.936Z,11.38
2022-12-03T19:14:53.879Z,9.82
2022-12-03T19:17:21.884Z,10.07
2022-12-03T19:19:49.047Z,10.32
2022-12-03T19:22:16.146Z,11.50
2022-12-03T19:24:43.872Z,9.70
2022-12-03T19:27:10.904Z,9.30
2022-12-03T19:29:37.899Z,10.70
2022-12-03T19:32:05.196Z,9.85
2022-12-03T19:34:32.354Z,9.13
2022-12-03T19:36:59.348Z,7.97
2022-12-03T19:39:26.272Z,8.40
2022-12-03T19:41:53.183Z,9.07
2022-12-03T19:44:20.285Z,9.43
2022-12-03T19:46:49.929Z,11.77
2022-12-03T19:49:18.747Z,10.52
2022-12-03T19:51:45.739Z,10.10
2022-12-03T19:54:13.004Z,13.43
2022-12-03T19:56:40.225Z,9.43
2022-12-03T19:59:08.049Z,8.07
2022-12-03T20:01:36.833Z,8.05
2022-12-03T20:04:04.436Z,11.82
2022-12-03T20:06:35.688Z,23.17
2022-12-03T20:09:09.026Z,13.52
2022-12-03T20:11:36.277Z,12.50
2022-12-03T20:14:06.959Z,11.95
2022-12-03T20:16:34.572Z,13.23
2022-12-03T20:19:06.019Z,14.18
2022-12-03T20:21:35.524Z,14.00
2022-12-03T20:24:04.111Z,14.40
2022-12-03T20:26:31.568Z,12.15
2022-12-03T20:28:58.659Z,10.98
2022-12-03T20:31:28.369Z,10.93
2022-12-03T20:33:57.931Z,10.05
2022-12-03T20:36:25.588Z,11.30
2022-12-03T20:38:57.187Z,9.63
2022-12-03T20:41:24.746Z,9.18
2022-12-03T20:43:52.156Z,10.02
2022-12-03T20:46:25.967Z,11.20
2022-12-03T20:48:56.588Z,13.70
2022-12-03T20:51:26.245Z,14.50
2022-12-03T20:53:53.241Z,13.60
2022-12-03T20:56:22.897Z,14.13
2022-12-03T20:58:50.252Z,11.38
2022-12-03T21:01:19.650Z,12.20
2022-12-03T21:03:47.672Z,13.00
2022-12-03T21:06:17.228Z,13.85
2022-12-03T21:08:44.564Z,15.98
2022-12-03T21:11:19.874Z,16.90
2022-12-03T21:13:47.737Z,16.13
2022-12-03T21:16:18.076Z,14.23
2022-12-03T21:18:45.729Z,14.80
2022-12-03T21:21:14.206Z,16.73
2022-12-03T21:23:41.658Z,17.40
2022-12-03T21:26:19.818Z,15.68
2022-12-03T21:28:48.657Z,15.30
2022-12-03T21:31:25.908Z,12.48
2022-12-03T21:33:54.830Z,12.38
2022-12-03T21:36:22.747Z,10.70
2022-12-03T21:38:50.152Z,11.00
2022-12-03T21:41:17.559Z,11.02
2022-12-03T21:43:45.115Z,14.05
2022-12-03T21:47:08.277Z,12.65
2022-12-03T21:49:02.389Z,10.23
2022-12-03T21:51:29.808Z,10.30
2022-12-03T21:53:56.906Z,16.80
2022-12-03T21:56:23.939Z,13.77
2022-12-03T21:58:51.101Z,11.25
2022-12-03T22:01:22.161Z,17.60
2022-12-03T22:03:49.805Z,15.45
2022-12-03T22:06:17.571Z,12.25
2022-12-03T22:08:44.714Z,12.77
2022-12-03T22:11:22.620Z,12.70
2022-12-03T22:13:50.033Z,15.57
2022-12-03T22:16:19.532Z,14.27
2022-12-03T22:18:46.835Z,14.25
2022-12-03T22:21:17.048Z,15.57
2022-12-03T22:23:44.710Z,15.23
2022-12-03T22:26:14.778Z,16.70
2022-12-03T22:28:46.424Z,15.73
2022-12-03T22:31:14.431Z,16.33
2022-12-03T22:33:41.907Z,15.05
2022-12-03T22:36:18.317Z,17.30
2022-12-03T22:38:47.929Z,16.63
2022-12-03T22:41:15.901Z,18.13
2022-12-03T22:43:43.149Z,16.58
2022-12-03T22:46:12.890Z,15.13
2022-12-03T22:48:41.188Z,14.30
2022-12-03T22:51:20.826Z,18.17
2022-12-03T22:53:48.796Z,16.98
2022-12-03T22:56:17.377Z,16.77
2022-12-03T22:58:44.525Z,15.52
2022-12-03T23:01:30.672Z,16.58
2022-12-03T23:03:58.264Z,16.83
2022-12-03T23:06:25.480Z,17.73
2022-12-03T23:08:52.988Z,16.35
2022-12-03T23:11:20.802Z,17.98
2022-12-03T23:13:48.566Z,18.38
2022-12-03T23:16:26.353Z,17.92
2022-12-03T23:18:54.026Z,15.35
2022-12-03T23:21:29.388Z,14.77
2022-12-03T23:24:01.123Z,13.75
2022-12-03T23:26:28.887Z,14.15
2022-12-03T23:28:56.759Z,13.23
2022-12-03T23:31:26.445Z,11.43
2022-12-03T23:33:54.572Z,12.95
2022-12-03T23:36:23.114Z,12.00
2022-12-03T23:38:50.317Z,9.80
2022-12-03T23:41:19.972Z,9.73
2022-12-03T23:43:47.786Z,7.55
2022-12-03T23:46:21.532Z,9.30
2022-12-03T23:48:48.740Z,6.72
2022-12-03T23:51:26.283Z,5.55
2022-12-03T23:53:55.020Z,5.82
2022-12-03T23:56:25.694Z,5.15
2022-12-03T23:58:52.814Z,5.38
